Time;durP1;ratioP1;P1;durP2;ratioP2;P2;SDS_P1;SDS_P2;PMS_P1;PMS_P2;Temp;Humidity;BMP_temperature;BMP_pressure;BME280_temperature;BME280_humidity;BME280_pressure;Samples;Min_cycle;Max_cycle;Signal;HPM_P1;HPM_P2
2022/04/04 00:01:24;;;;;;;1.02;1.02;;;3.10;99.90;;;;;;4986778;28;20046;-72
2022/04/04 00:03:50;;;;;;;0.80;0.80;;;3.10;99.90;;;;;;4992937;28;20143;-71
2022/04/04 00:06:15;;;;;;;1.65;0.80;;;3.10;99.90;;;;;;5006639;28;20069;-72
2022/04/04 00:08:41;;;;;;;0.40;0.40;;;3.10;99.90;;;;;;5006578;28;20146;-72
2022/04/04 00:11:07;;;;;;;0.68;0.68;;;3.10;99.90;;;;;;5005004;28;20038;-72
2022/04/04 00:13:33;;;;;;;0.95;0.95;;;3.10;99.90;;;;;;5012583;28;20417;-72
2022/04/04 00:15:58;;;;;;;0.40;0.40;;;3.00;99.90;;;;;;5002993;28;20068;-71
2022/04/04 00:18:24;;;;;;;0.65;0.65;;;3.00;99.90;;;;;;4992530;28;20041;-72
2022/04/04 00:20:50;;;;;;;0.47;0.47;;;3.00;99.90;;;;;;5012587;28;20059;-72
2022/04/04 00:23:16;;;;;;;1.50;1.42;;;3.00;99.90;;;;;;5012245;28;20049;-71
2022/04/04 00:25:44;;;;;;;0.93;0.88;;;3.00;99.90;;;;;;5012331;28;20096;-71
2022/04/04 00:28:10;;;;;;;0.60;0.60;;;3.00;99.90;;;;;;5013024;28;20037;-72
2022/04/04 00:30:36;;;;;;;0.68;0.68;;;3.00;99.90;;;;;;4995810;28;20042;-71
2022/04/04 00:33:03;;;;;;;0.77;0.77;;;3.00;99.90;;;;;;4995866;28;20503;-71
2022/04/04 00:35:29;;;;;;;1.67;1.27;;;3.00;99.90;;;;;;4995962;28;20052;-71
2022/04/04 00:37:57;;;;;;;1.27;0.98;;;3.00;99.90;;;;;;5012023;28;20049;-72
2022/04/04 00:40:23;;;;;;;2.03;1.83;;;3.00;99.90;;;;;;4995862;28;20037;-71
2022/04/04 00:42:48;;;;;;;1.20;1.13;;;3.00;99.90;;;;;;5010850;28;20546;-71
2022/04/04 00:45:14;;;;;;;2.75;1.35;;;3.00;99.90;;;;;;5012083;28;20042;-72
2022/04/04 00:47:40;;;;;;;1.85;1.55;;;3.00;99.90;;;;;;4996035;28;20037;-72
2022/04/04 00:50:06;;;;;;;1.08;1.08;;;3.10;99.90;;;;;;5012124;28;20409;-72
2022/04/04 00:52:32;;;;;;;1.73;1.63;;;3.10;99.90;;;;;;5012214;28;20045;-72
2022/04/04 00:54:58;;;;;;;1.08;1.02;;;3.10;99.90;;;;;;5011781;28;20595;-71
2022/04/04 00:57:24;;;;;;;0.70;0.70;;;3.10;99.90;;;;;;5012280;28;20082;-71
2022/04/04 00:59:50;;;;;;;6.13;2.03;;;3.10;99.90;;;;;;5008083;28;20034;-71
2022/04/04 01:02:16;;;;;;;1.55;1.45;;;3.20;99.90;;;;;;5007911;28;20045;-72
2022/04/04 01:04:42;;;;;;;1.65;1.55;;;3.20;99.90;;;;;;4995883;28;20607;-72
2022/04/04 01:07:07;;;;;;;6.75;1.27;;;3.30;99.90;;;;;;5011392;28;20156;-72
2022/04/04 01:09:33;;;;;;;2.00;1.25;;;3.30;99.90;;;;;;4995696;28;20041;-72
2022/04/04 01:12:04;;;;;;;1.38;1.27;;;3.40;99.90;;;;;;5005187;28;20037;-71
2022/04/04 01:14:30;;;;;;;1.15;1.13;;;3.40;99.90;;;;;;5000931;28;20053;-72
2022/04/04 01:16:55;;;;;;;1.38;1.23;;;3.50;99.90;;;;;;5011516;28;20121;-72
2022/04/04 01:19:21;;;;;;;0.93;0.93;;;3.50;99.90;;;;;;4997827;28;20117;-71
2022/04/04 01:21:47;;;;;;;1.50;1.40;;;3.60;99.90;;;;;;5007514;28;20033;-71
2022/04/04 01:24:19;;;;;;;0.52;0.52;;;3.60;99.90;;;;;;5011309;28;20452;-72
2022/04/04 01:26:46;;;;;;;2.72;2.03;;;3.60;99.90;;;;;;4998165;28;20049;-71
2022/04/04 01:29:12;;;;;;;3.03;2.25;;;3.70;99.90;;;;;;5010564;28;20405;-71
2022/04/04 01:31:38;;;;;;;9.30;4.70;;;3.70;99.90;;;;;;4992154;28;20044;-71
2022/04/04 01:34:03;;;;;;;3.90;2.45;;;3.80;99.90;;;;;;4994390;28;20159;-72
2022/04/04 01:36:29;;;;;;;2.28;2.05;;;3.80;99.90;;;;;;5006476;28;20087;-71
2022/04/04 01:38:54;;;;;;;2.90;2.58;;;3.80;99.90;;;;;;4990503;28;20445;-71
2022/04/04 01:41:20;;;;;;;1.48;1.38;;;3.90;99.90;;;;;;4991139;28;20481;-71
2022/04/04 01:43:46;;;;;;;8.38;5.30;;;3.90;99.90;;;;;;5012005;28;20045;-71
2022/04/04 01:46:24;;;;;;;2.28;2.10;;;3.90;99.90;;;;;;5012330;28;20088;-70
2022/04/04 01:48:57;;;;;;;6.82;3.63;;;4.00;99.90;;;;;;5008768;28;20043;-70
2022/04/04 01:51:23;;;;;;;;;;;4.00;99.90;;;;;;5010838;28;20131;-71
2022/04/04 01:53:48;;;;;;;5.88;4.65;;;4.10;99.90;;;;;;4993938;28;19929;-70
2022/04/04 01:56:15;;;;;;;18.27;2.75;;;4.10;99.90;;;;;;5010260;28;20037;-70
2022/04/04 01:58:41;;;;;;;5.25;4.13;;;4.10;99.90;;;;;;4994660;28;20418;-70
2022/04/04 02:01:12;;;;;;;3.58;3.17;;;4.20;99.90;;;;;;5007946;28;20758;-70
2022/04/04 02:03:38;;;;;;;4.53;3.42;;;4.20;99.90;;;;;;5011073;28;20056;-70
2022/04/04 02:06:04;;;;;;;7.22;4.20;;;4.20;99.90;;;;;;4992338;28;20444;-71
2022/04/04 02:08:31;;;;;;;1.85;1.65;;;4.20;99.90;;;;;;5007444;28;20129;-70
2022/04/04 02:10:58;;;;;;;1.92;1.55;;;4.20;99.90;;;;;;4977850;28;20049;-71
2022/04/04 02:13:25;;;;;;;3.72;2.80;;;4.20;99.90;;;;;;5008046;28;20053;-71
2022/04/04 02:16:00;;;;;;;2.95;2.65;;;4.20;99.90;;;;;;4995103;28;20060;-70
2022/04/04 02:18:27;;;;;;;5.03;3.80;;;4.20;99.90;;;;;;5007304;28;20126;-71
2022/04/04 02:20:53;;;;;;;12.52;4.25;;;4.30;99.90;;;;;;5010373;28;20037;-71
2022/04/04 02:23:20;;;;;;;4.47;2.45;;;4.30;99.90;;;;;;4994448;28;20045;-70
2022/04/04 02:25:46;;;;;;;6.25;5.20;;;4.30;99.90;;;;;;5010469;28;20076;-71
2022/04/04 02:28:13;;;;;;;3.30;3.00;;;4.30;99.90;;;;;;5010296;28;20645;-71
2022/04/04 02:30:42;;;;;;;4.35;2.60;;;4.30;99.90;;;;;;5009417;28;20095;-71
2022/04/04 02:33:08;;;;;;;6.78;3.42;;;4.30;99.90;;;;;;5010234;28;20394;-71
2022/04/04 02:35:34;;;;;;;39.22;5.75;;;4.30;99.90;;;;;;4993944;28;20052;-71
2022/04/04 02:38:02;;;;;;;4.70;3.95;;;4.30;99.90;;;;;;5010822;28;20045;-71
2022/04/04 02:40:28;;;;;;;15.05;6.47;;;4.30;99.90;;;;;;4993805;28;20064;-71
2022/04/04 02:42:54;;;;;;;3.13;2.80;;;4.30;99.90;;;;;;5010739;28;20053;-71
2022/04/04 02:45:20;;;;;;;8.25;5.50;;;4.30;99.90;;;;;;4992882;28;20068;-71
2022/04/04 02:47:46;;;;;;;4.65;3.75;;;4.40;99.90;;;;;;4993334;28;20172;-71
2022/04/04 02:50:13;;;;;;;5.75;4.28;;;4.40;99.90;;;;;;5010289;28;20878;-71
2022/04/04 02:52:39;;;;;;;10.90;3.00;;;4.40;99.90;;;;;;4994099;28;20057;-71
2022/04/04 02:57:51;;;;;;;5.75;4.38;;;4.40;99.90;;;;;;5010230;28;20046;-71
2022/04/04 03:00:18;;;;;;;3.83;2.80;;;4.40;99.90;;;;;;5007216;28;20045;-71
2022/04/04 03:02:44;;;;;;;3.83;2.88;;;4.50;99.90;;;;;;5022678;28;20060;-71
2022/04/04 03:05:10;;;;;;;2.40;2.17;;;4.50;99.90;;;;;;5010039;28;20121;-71
2022/04/04 03:07:35;;;;;;;4.68;2.97;;;4.50;99.90;;;;;;4982372;28;20125;-71
2022/04/04 03:10:02;;;;;;;4.40;3.25;;;4.50;99.90;;;;;;5003613;28;20189;-71
2022/04/04 03:12:28;;;;;;;4.53;2.22;;;4.60;99.90;;;;;;5008906;28;20052;-71
2022/04/04 03:14:54;;;;;;;3.35;2.28;;;4.60;99.90;;;;;;4992664;28;20041;-71
2022/04/04 03:17:20;;;;;;;5.43;4.03;;;4.60;99.90;;;;;;4994062;28;20184;-72
2022/04/04 03:19:46;;;;;;;3.30;2.78;;;4.70;99.90;;;;;;5009835;28;20390;-71
2022/04/04 03:22:12;;;;;;;1.90;1.80;;;4.70;99.90;;;;;;5010132;28;20040;-71
2022/04/04 03:24:38;;;;;;;10.02;5.07;;;4.70;99.90;;;;;;5011038;28;20104;-71
2022/04/04 03:27:04;;;;;;;7.22;5.53;;;4.70;99.90;;;;;;4992748;28;20639;-71
2022/04/04 03:29:29;;;;;;;5.10;4.15;;;4.80;99.90;;;;;;5009599;28;20037;-72
2022/04/04 03:31:55;;;;;;;8.10;4.93;;;4.90;99.90;;;;;;5009676;28;20047;-71
2022/04/04 03:34:22;;;;;;;5.13;3.55;;;4.90;99.90;;;;;;4993308;28;20030;-71
2022/04/04 03:36:48;;;;;;;4.68;3.95;;;4.90;99.90;;;;;;5009405;28;20048;-71
2022/04/04 03:39:16;;;;;;;1.27;1.27;;;4.90;99.90;;;;;;5010011;28;20446;-71
2022/04/04 03:41:46;;;;;;;1.10;1.08;;;4.90;99.90;;;;;;5010151;28;20037;-71
2022/04/04 03:44:12;;;;;;;6.40;5.10;;;5.00;99.90;;;;;;4994909;28;20401;-71
2022/04/04 03:46:38;;;;;;;3.30;3.00;;;5.00;99.90;;;;;;5013461;28;20501;-71
2022/04/04 03:49:05;;;;;;;2.53;1.90;;;5.00;99.90;;;;;;5011628;28;20133;-71
2022/04/04 03:51:31;;;;;;;1.88;1.73;;;5.00;99.90;;;;;;4996984;28;20045;-72
2022/04/04 03:53:58;;;;;;;9.95;6.82;;;5.00;99.90;;;;;;4994831;28;20124;-71
2022/04/04 03:56:24;;;;;;;3.08;2.72;;;5.00;99.90;;;;;;5012995;28;20041;-71
2022/04/04 03:58:50;;;;;;;3.72;3.42;;;5.00;99.90;;;;;;4996562;28;20144;-71
2022/04/04 04:01:16;;;;;;;150.15;21.52;;;5.00;99.90;;;;;;4996220;28;20037;-71
2022/04/04 04:03:42;;;;;;;18.52;4.60;;;5.00;99.90;;;;;;5013469;28;20107;-71
2022/04/04 04:06:14;;;;;;;3.75;2.42;;;5.00;99.90;;;;;;5012526;28;20139;-71
2022/04/04 04:08:42;;;;;;;2.90;2.70;;;5.00;99.90;;;;;;5013170;28;20081;-71
2022/04/04 04:11:08;;;;;;;2.63;1.75;;;5.00;99.90;;;;;;5013000;28;20478;-71
2022/04/04 04:13:34;;;;;;;17.20;5.53;;;5.10;99.90;;;;;;5012414;28;20049;-71
2022/04/04 04:16:02;;;;;;;12.50;9.63;;;5.10;99.90;;;;;;4996594;28;20643;-71
2022/04/04 04:18:28;;;;;;;4.70;3.20;;;5.10;99.90;;;;;;5011737;28;20495;-71
2022/04/04 04:20:54;;;;;;;9.20;4.72;;;5.20;99.90;;;;;;5029577;28;20056;-72
2022/04/04 04:23:20;;;;;;;7.18;4.93;;;5.20;99.90;;;;;;5012825;28;20557;-72
2022/04/04 04:25:46;;;;;;;13.63;8.23;;;5.30;99.90;;;;;;5012249;28;20145;-71
2022/04/04 04:28:12;;;;;;;4.57;4.15;;;5.30;99.90;;;;;;5012969;28;20479;-72
2022/04/04 04:30:38;;;;;;;10.25;6.75;;;5.30;99.90;;;;;;5012266;28;20049;-72
2022/04/04 04:33:04;;;;;;;9.43;5.50;;;5.30;99.90;;;;;;5012520;28;20075;-71
2022/04/04 04:35:31;;;;;;;8.85;4.95;;;5.30;99.90;;;;;;5012114;28;20050;-71
2022/04/04 04:37:56;;;;;;;9.80;5.32;;;5.40;99.90;;;;;;5011721;28;20142;-72
2022/04/04 04:40:22;;;;;;;7.55;5.65;;;5.30;99.90;;;;;;5012000;28;20041;-72
2022/04/04 04:42:50;;;;;;;7.05;3.83;;;5.30;99.90;;;;;;5002393;28;20039;-72
2022/04/04 04:45:15;;;;;;;18.42;6.57;;;5.30;99.90;;;;;;5012372;28;20049;-72
2022/04/04 04:47:42;;;;;;;9.65;3.47;;;5.40;99.90;;;;;;5012062;28;20049;-72
2022/04/04 04:50:08;;;;;;;4.82;2.72;;;5.30;99.90;;;;;;4995346;28;20053;-72
2022/04/04 04:52:34;;;;;;;2.38;2.15;;;5.40;99.90;;;;;;5012429;28;20120;-72
2022/04/04 04:55:01;;;;;;;12.10;7.45;;;5.30;99.90;;;;;;5011296;28;20060;-72
2022/04/04 04:57:27;;;;;;;1.77;1.67;;;5.30;99.90;;;;;;5012387;28;20059;-72
2022/04/04 04:59:53;;;;;;;5.15;4.13;;;5.30;99.90;;;;;;5007488;28;20037;-71
2022/04/04 05:02:19;;;;;;;4.53;2.63;;;5.30;99.90;;;;;;5012257;28;20119;-71
2022/04/04 05:04:44;;;;;;;5.38;4.13;;;5.30;99.90;;;;;;5011052;28;20547;-72
2022/04/04 05:07:10;;;;;;;26.38;14.55;;;5.30;99.90;;;;;;5012697;28;20044;-71
2022/04/04 05:09:36;;;;;;;5.88;4.20;;;5.40;99.90;;;;;;5011214;28;20227;-72
2022/04/04 05:12:02;;;;;;;1.95;1.85;;;5.40;99.90;;;;;;5011121;28;20122;-72
2022/04/04 05:14:28;;;;;;;14.25;9.57;;;5.50;99.90;;;;;;5015040;28;20088;-72
2022/04/04 05:16:54;;;;;;;8.85;4.55;;;5.40;99.90;;;;;;5012032;28;20828;-72
2022/04/04 05:19:22;;;;;;;17.58;7.18;;;5.50;99.90;;;;;;5011056;28;20041;-72
2022/04/04 05:21:48;;;;;;;20.77;7.93;;;5.40;99.90;;;;;;5011344;28;20041;-73
2022/04/04 05:24:14;;;;;;;7.68;4.15;;;5.40;99.90;;;;;;4995144;28;20049;-72
2022/04/04 05:26:41;;;;;;;5.80;2.95;;;5.50;99.90;;;;;;5028967;28;20163;-73
2022/04/04 05:29:07;;;;;;;7.68;4.22;;;5.40;99.90;;;;;;4995204;28;20536;-72
2022/04/04 05:31:33;;;;;;;11.63;5.03;;;5.50;99.90;;;;;;5005900;28;20037;-72
2022/04/04 05:33:59;;;;;;;9.27;5.85;;;5.50;99.90;;;;;;5011051;28;20053;-72
2022/04/04 05:36:27;;;;;;;8.77;5.80;;;5.50;99.90;;;;;;5011620;28;20523;-72
2022/04/04 05:38:53;;;;;;;13.75;7.30;;;5.50;99.90;;;;;;5010819;28;20037;-72
2022/04/04 05:41:18;;;;;;;7.93;5.07;;;5.50;99.90;;;;;;5010331;28;20124;-73
2022/04/04 05:43:46;;;;;;;12.80;5.95;;;5.40;99.90;;;;;;4989743;28;20562;-72
2022/04/04 05:46:16;;;;;;;6.18;4.43;;;5.40;99.90;;;;;;4992182;28;20088;-73
2022/04/04 05:48:42;;;;;;;8.35;4.57;;;5.40;99.90;;;;;;5002404;28;21561;-73
2022/04/04 05:51:09;;;;;;;7.30;4.63;;;5.40;99.90;;;;;;5011357;28;20488;-72
2022/04/04 05:53:35;;;;;;;5.90;4.03;;;5.40;99.90;;;;;;5007539;28;20056;-72
2022/04/04 05:56:01;;;;;;;3.97;3.03;;;5.40;99.90;;;;;;4994619;28;20458;-73
2022/04/04 05:58:26;;;;;;;11.05;6.68;;;5.40;99.90;;;;;;5011297;28;20065;-73
2022/04/04 06:00:53;;;;;;;10.57;6.10;;;5.30;99.90;;;;;;5005714;28;20037;-72
2022/04/04 06:03:19;;;;;;;4.15;3.67;;;5.20;99.90;;;;;;5011652;28;20045;-73
2022/04/04 06:05:47;;;;;;;11.27;5.22;;;5.10;99.90;;;;;;5006000;28;20100;-72
2022/04/04 06:08:13;;;;;;;9.57;5.50;;;5.10;99.90;;;;;;5007870;28;20053;-73
2022/04/04 06:10:38;;;;;;;4.65;2.83;;;5.20;99.90;;;;;;4995467;28;20409;-73
2022/04/04 06:13:04;;;;;;;4.70;3.17;;;5.10;99.90;;;;;;4995251;28;20041;-73
2022/04/04 06:15:29;;;;;;;1.85;1.25;;;5.00;99.90;;;;;;5006380;28;20103;-73
2022/04/04 06:17:55;;;;;;;2.92;1.65;;;5.00;99.90;;;;;;4995296;28;20049;-73
2022/04/04 06:20:21;;;;;;;2.40;2.10;;;4.90;99.90;;;;;;5010270;28;20470;-74
2022/04/04 06:22:47;;;;;;;1.42;1.33;;;4.80;99.90;;;;;;4995020;28;20037;-73
2022/04/04 06:25:13;;;;;;;8.98;4.63;;;4.90;99.90;;;;;;5010339;28;20049;-73
2022/04/04 06:27:42;;;;;;;4.35;2.55;;;5.00;99.90;;;;;;5006710;28;20057;-73
2022/04/04 06:30:09;;;;;;;7.40;2.08;;;5.00;99.90;;;;;;5009047;28;20467;-72
2022/04/04 06:32:35;;;;;;;3.70;2.60;;;4.90;99.90;;;;;;5008615;28;20055;-74
2022/04/04 06:35:01;;;;;;;5.85;3.55;;;4.90;99.90;;;;;;5010671;28;20033;-74
2022/04/04 06:37:26;;;;;;;3.15;1.95;;;4.90;99.90;;;;;;5008348;28;20122;-74
2022/04/04 06:39:52;;;;;;;2.28;1.88;;;4.80;99.90;;;;;;4984759;28;20041;-74
2022/04/04 06:42:19;;;;;;;3.58;2.88;;;4.90;99.90;;;;;;4999484;28;20122;-73
2022/04/04 06:44:44;;;;;;;5.15;2.58;;;4.90;99.90;;;;;;4999023;28;20056;-74
2022/04/04 06:47:10;;;;;;;6.68;2.60;;;4.90;99.90;;;;;;5010337;28;20057;-75
2022/04/04 06:49:36;;;;;;;8.50;2.80;;;4.90;99.90;;;;;;4993769;28;20041;-75
2022/04/04 06:52:02;;;;;;;2.67;2.38;;;4.90;99.90;;;;;;4994668;28;20085;-74
2022/04/04 06:54:27;;;;;;;3.95;2.38;;;4.90;99.90;;;;;;4983937;28;20577;-74
2022/04/04 06:56:55;;;;;;;1.58;1.48;;;5.00;99.90;;;;;;4980605;28;20037;-74
2022/04/04 06:59:22;;;;;;;7.97;4.82;;;4.90;99.90;;;;;;4998195;28;20042;-74
2022/04/04 07:01:49;;;;;;;3.40;2.78;;;5.00;99.90;;;;;;5006804;28;20056;-74
2022/04/04 07:04:16;;;;;;;4.70;3.15;;;5.00;99.90;;;;;;5002625;28;20085;-73
2022/04/04 07:06:41;;;;;;;5.25;2.92;;;5.10;99.90;;;;;;4993321;28;20037;-74
2022/04/04 07:09:08;;;;;;;8.57;3.65;;;5.10;99.90;;;;;;5005518;28;20053;-74
2022/04/04 07:11:35;;;;;;;9.02;6.10;;;5.20;99.90;;;;;;4993212;28;20128;-74
2022/04/04 07:14:02;;;;;;;2.15;2.05;;;5.20;99.90;;;;;;4992539;28;20097;-75
2022/04/04 07:16:28;;;;;;;9.90;4.55;;;5.30;99.90;;;;;;4984027;28;20047;-74
2022/04/04 07:18:54;;;;;;;4.90;2.60;;;5.30;99.90;;;;;;4986016;28;20406;-75
2022/04/04 07:21:20;;;;;;;2.55;2.22;;;5.30;99.90;;;;;;4997945;28;20029;-74
2022/04/04 07:23:48;;;;;;;10.90;6.35;;;5.40;99.90;;;;;;5013455;28;20126;-75
2022/04/04 07:26:18;;;;;;;11.05;4.68;;;5.40;99.90;;;;;;5000894;28;20525;-75
2022/04/04 07:28:47;;;;;;;6.72;3.83;;;5.40;99.90;;;;;;4988571;28;20128;-74
2022/04/04 07:31:16;;;;;;;11.15;6.30;;;5.50;99.90;;;;;;4986604;28;20422;-75
2022/04/04 07:33:42;;;;;;;15.57;4.03;;;5.50;99.90;;;;;;5008121;28;20038;-75
2022/04/04 07:36:08;;;;;;;4.85;3.25;;;5.60;99.90;;;;;;4987109;28;20081;-74
2022/04/04 07:38:34;;;;;;;8.32;5.43;;;5.60;99.90;;;;;;4990429;28;20077;-75
2022/04/04 07:40:59;;;;;;;5.25;3.80;;;5.70;99.90;;;;;;5006216;28;20038;-74
2022/04/04 07:43:26;;;;;;;8.52;5.68;;;5.70;99.90;;;;;;5005675;28;20517;-74
2022/04/04 07:45:52;;;;;;;7.10;4.03;;;5.70;99.90;;;;;;5000596;28;20414;-75
2022/04/04 07:48:18;;;;;;;14.50;3.25;;;5.70;99.90;;;;;;4999939;28;20042;-75
2022/04/04 07:50:45;;;;;;;5.28;4.07;;;5.70;99.90;;;;;;4999202;28;20544;-75
2022/04/04 07:53:11;;;;;;;8.77;6.28;;;5.80;99.90;;;;;;5003840;28;20565;-74
2022/04/04 07:55:37;;;;;;;13.07;6.65;;;5.80;99.90;;;;;;5000312;28;20041;-75
2022/04/04 07:58:04;;;;;;;5.57;3.30;;;5.90;99.90;;;;;;4991511;28;20034;-75
2022/04/04 08:00:30;;;;;;;8.20;5.53;;;5.80;99.90;;;;;;5004915;28;20430;-74
2022/04/04 08:02:55;;;;;;;8.50;4.40;;;5.80;99.90;;;;;;5009959;28;20042;-75
2022/04/04 08:05:23;;;;;;;3.03;2.33;;;5.90;99.90;;;;;;4994768;28;20120;-75
2022/04/04 08:07:51;;;;;;;9.82;5.90;;;5.90;99.90;;;;;;4994112;28;20049;-74
2022/04/04 08:10:17;;;;;;;9.00;5.20;;;6.00;99.90;;;;;;4994200;28;20048;-74
2022/04/04 08:12:43;;;;;;;7.57;5.80;;;6.10;99.90;;;;;;5010245;28;20569;-75
2022/04/04 08:15:10;;;;;;;9.90;5.90;;;6.00;99.90;;;;;;4994162;28;20184;-74
2022/04/04 08:17:36;;;;;;;9.43;5.60;;;6.00;99.90;;;;;;5009456;28;20156;-75
2022/04/04 08:20:03;;;;;;;3.50;2.88;;;6.00;99.90;;;;;;4992405;28;20549;-75
2022/04/04 08:22:28;;;;;;;6.13;5.20;;;6.10;99.90;;;;;;5010204;28;20538;-75
2022/04/04 08:24:54;;;;;;;1.08;1.00;;;6.10;99.90;;;;;;5006554;28;20126;-75
2022/04/04 08:27:22;;;;;;;6.57;3.88;;;6.10;99.90;;;;;;4989984;28;20057;-75
2022/04/04 08:29:47;;;;;;;6.18;4.35;;;6.10;99.90;;;;;;5008029;28;20088;-76
2022/04/04 08:32:13;;;;;;;6.60;5.55;;;6.10;99.90;;;;;;5007669;28;20038;-76
2022/04/04 08:34:39;;;;;;;3.13;2.85;;;6.20;99.90;;;;;;5002765;28;20038;-75
2022/04/04 08:37:05;;;;;;;6.32;3.55;;;6.20;99.90;;;;;;5009717;28;20041;-75
2022/04/04 08:39:31;;;;;;;2.53;2.33;;;6.20;99.90;;;;;;4990122;28;20061;-75
2022/04/04 08:41:57;;;;;;;6.60;3.10;;;6.20;99.90;;;;;;4974064;28;20081;-76
2022/04/04 08:44:24;;;;;;;2.28;2.05;;;6.20;99.90;;;;;;4974550;28;20054;-77
2022/04/04 08:46:51;;;;;;;3.53;2.55;;;6.20;99.90;;;;;;4986226;28;20034;-76
2022/04/04 08:49:17;;;;;;;7.13;2.90;;;6.30;99.90;;;;;;5010233;28;20049;-77
2022/04/04 08:51:42;;;;;;;8.05;2.95;;;6.20;99.90;;;;;;4993956;28;20490;-77
2022/04/04 08:54:08;;;;;;;2.55;2.35;;;6.30;99.90;;;;;;5009597;28;20042;-78
2022/04/04 08:56:34;;;;;;;5.65;2.10;;;6.30;99.90;;;;;;4993802;28;20524;-76
2022/04/04 08:59:00;;;;;;;3.95;3.28;;;6.30;99.90;;;;;;4993855;28;20414;-78
2022/04/04 09:01:27;;;;;;;7.95;5.25;;;6.40;99.90;;;;;;4993197;28;20053;-76
2022/04/04 09:04:04;;;;;;;4.82;3.42;;;6.40;99.90;;;;;;5009635;28;20049;-75
2022/04/04 09:06:31;;;;;;;6.43;3.55;;;6.40;99.90;;;;;;4991609;28;20073;-75
2022/04/04 09:08:57;;;;;;;3.28;2.15;;;6.40;99.90;;;;;;4993785;28;20073;-76
2022/04/04 09:11:23;;;;;;;6.80;2.80;;;6.40;99.90;;;;;;5001812;28;20049;-77
2022/04/04 09:14:06;;;;;;;1.58;1.48;;;6.40;99.90;;;;;;4985716;28;20043;-77
2022/04/04 09:16:32;;;;;;;6.15;3.63;;;6.50;99.90;;;;;;4991820;28;20417;-76
2022/04/04 09:18:58;;;;;;;2.45;2.17;;;6.50;99.90;;;;;;5008755;28;20041;-76
2022/04/04 09:21:24;;;;;;;2.88;1.88;;;6.50;99.90;;;;;;4995632;28;20030;-76
2022/04/04 09:23:54;;;;;;;2.42;1.92;;;6.50;99.90;;;;;;4989691;28;20054;-77
2022/04/04 09:26:35;;;;;;;4.55;3.33;;;6.50;99.90;;;;;;4993067;28;20046;-76
2022/04/04 09:29:05;;;;;;;5.43;2.95;;;6.50;99.90;;;;;;5009657;28;20092;-76
2022/04/04 09:31:31;;;;;;;6.45;2.33;;;6.60;99.90;;;;;;5009204;28;20397;-77
2022/04/04 09:34:01;;;;;;;7.07;3.00;;;6.60;99.90;;;;;;4992648;28;20136;-76
2022/04/04 09:36:27;;;;;;;4.22;3.38;;;6.60;99.90;;;;;;5005706;28;20129;-76
2022/04/04 09:38:55;;;;;;;1.98;1.58;;;6.60;99.90;;;;;;4989748;28;20125;-78
2022/04/04 09:41:24;;;;;;;2.97;1.45;;;6.60;99.90;;;;;;4980686;28;20034;-77
2022/04/04 09:43:59;;;;;;;1.77;1.67;;;6.60;99.90;;;;;;4989893;28;20050;-77
2022/04/04 09:46:33;;;;;;;2.70;2.05;;;6.70;99.90;;;;;;5002270;28;20160;-76
2022/04/04 09:49:16;;;;;;;6.60;3.03;;;6.70;99.90;;;;;;4991162;28;20767;-76
2022/04/04 09:51:46;;;;;;;6.93;4.72;;;6.70;99.90;;;;;;4989702;28;20509;-76
2022/04/04 09:54:20;;;;;;;1.90;1.67;;;6.70;99.90;;;;;;4988816;28;20038;-76
2022/04/04 09:56:47;;;;;;;2.22;2.00;;;6.80;99.90;;;;;;4973306;28;20076;-76
2022/04/04 09:59:15;;;;;;;1.83;1.63;;;6.80;99.90;;;;;;5005743;28;20050;-77
2022/04/04 10:01:45;;;;;;;1.85;1.52;;;6.90;99.90;;;;;;4989804;28;20513;-77
2022/04/04 10:04:12;;;;;;;3.05;1.60;;;6.90;99.90;;;;;;4998995;28;20392;-77
2022/04/04 10:06:39;;;;;;;5.38;2.65;;;6.90;99.90;;;;;;4973893;28;20054;-77
2022/04/04 10:09:05;;;;;;;3.80;2.05;;;6.90;99.90;;;;;;4991598;28;20053;-78
2022/04/04 10:11:34;;;;;;;1.65;1.38;;;6.90;99.90;;;;;;4992573;28;20041;-77
2022/04/04 10:14:01;;;;;;;2.55;1.33;;;6.90;99.90;;;;;;5006413;28;20052;-78
2022/04/04 10:16:26;;;;;;;31.08;4.60;;;6.90;99.90;;;;;;5009962;28;20037;-77
2022/04/04 10:18:54;;;;;;;4.32;2.53;;;7.00;99.90;;;;;;4989039;28;20042;-76
2022/04/04 10:21:21;;;;;;;3.00;2.10;;;7.00;99.90;;;;;;4990007;28;20483;-76
2022/04/04 10:23:50;;;;;;;1.58;1.48;;;7.10;99.90;;;;;;4991481;28;20048;-76
2022/04/04 10:26:19;;;;;;;3.47;2.08;;;7.10;99.90;;;;;;5007902;28;20906;-76
2022/04/04 10:28:47;;;;;;;6.43;1.80;;;7.10;99.90;;;;;;5003527;28;20050;-76
2022/04/04 10:31:16;;;;;;;2.08;1.88;;;7.10;99.90;;;;;;5007002;28;20120;-76
2022/04/04 10:33:43;;;;;;;3.55;1.20;;;7.10;99.90;;;;;;5004656;28;20038;-76
2022/04/04 10:36:29;;;;;;;1.20;1.20;;;7.10;99.90;;;;;;5004668;28;20042;-76
2022/04/04 10:38:56;;;;;;;1.80;1.48;;;7.10;99.90;;;;;;4987256;28;20160;-76
2022/04/04 10:41:26;;;;;;;5.00;2.92;;;7.20;99.90;;;;;;4999106;28;20049;-76
2022/04/04 10:43:54;;;;;;;3.17;1.98;;;7.20;99.90;;;;;;4987779;28;20427;-76
2022/04/04 10:46:24;;;;;;;1.08;0.98;;;7.20;99.90;;;;;;4988130;28;20053;-75
2022/04/04 10:49:04;;;;;;;1.02;1.02;;;7.20;99.90;;;;;;4987383;28;20509;-75
2022/04/04 10:51:31;;;;;;;3.25;2.00;;;7.20;99.90;;;;;;5004259;28;20050;-76
2022/04/04 10:54:00;;;;;;;5.75;1.40;;;7.30;99.90;;;;;;4991370;28;20513;-75
2022/04/04 10:56:31;;;;;;;1.58;1.48;;;7.30;99.90;;;;;;5003050;28;20498;-76
2022/04/04 10:59:15;;;;;;;2.80;1.85;;;7.30;99.90;;;;;;4983615;28;20038;-76
2022/04/04 11:01:51;;;;;;;2.10;1.52;;;7.30;99.90;;;;;;5000734;28;20099;-75
2022/04/04 11:04:31;;;;;;;3.90;2.53;;;7.30;99.90;;;;;;4972933;28;20463;-76
2022/04/04 11:09:55;;;;;;;2.63;1.70;;;7.50;99.90;;;;;;5013324;28;20137;-75
2022/04/04 11:12:24;;;;;;;2.20;1.20;;;7.50;99.90;;;;;;4987652;28;20056;-76
2022/04/04 11:15:10;;;;;;;1.25;1.15;;;7.50;99.90;;;;;;4987051;28;20346;-75
2022/04/04 11:17:57;;;;;;;1.00;1.00;;;7.50;99.90;;;;;;4980861;28;20078;-75
2022/04/04 11:20:31;;;;;;;0.85;0.85;;;7.60;99.90;;;;;;4994021;28;20148;-74
2022/04/04 11:22:59;;;;;;;2.22;1.40;;;7.60;99.90;;;;;;4996818;28;20053;-75
2022/04/04 11:25:29;;;;;;;2.95;1.23;;;7.60;99.90;;;;;;4992303;28;20077;-75
2022/04/04 11:27:57;;;;;;;0.70;0.70;;;7.70;99.90;;;;;;4994573;28;20042;-76
2022/04/04 11:30:24;;;;;;;1.23;1.13;;;7.80;99.90;;;;;;5010127;28;20116;-75
2022/04/04 11:32:53;;;;;;;1.20;1.00;;;7.80;99.90;;;;;;4998579;28;20055;-76
2022/04/04 11:35:22;;;;;;;0.68;0.68;;;7.80;99.90;;;;;;4985766;28;20038;-77
2022/04/04 11:37:54;;;;;;;1.40;1.15;;;7.80;99.90;;;;;;4986658;28;20050;-77
2022/04/04 11:40:37;;;;;;;1.10;1.00;;;7.80;99.90;;;;;;4998749;28;20674;-76
2022/04/04 11:43:08;;;;;;;2.63;1.20;;;7.80;99.90;;;;;;5008691;28;20045;-76
2022/04/04 11:45:36;;;;;;;3.00;2.33;;;7.80;99.90;;;;;;5002855;28;20100;-77
2022/04/04 11:48:06;;;;;;;0.70;0.70;;;7.80;99.90;;;;;;5009288;28;20124;-78
2022/04/04 11:50:37;;;;;;;0.68;0.68;;;7.80;99.90;;;;;;4991610;28;20096;-77
2022/04/04 11:53:08;;;;;;;0.95;0.95;;;7.80;99.90;;;;;;4992652;28;20509;-77
2022/04/04 11:55:37;;;;;;;1.02;1.02;;;7.90;99.90;;;;;;5003415;28;20042;-76
2022/04/04 11:58:25;;;;;;;1.00;0.90;;;7.80;99.90;;;;;;4994242;28;20045;-77
2022/04/04 12:00:54;;;;;;;0.80;0.80;;;7.90;99.90;;;;;;4979971;28;20100;-78
2022/04/04 12:03:22;;;;;;;0.75;0.75;;;7.80;99.90;;;;;;5009560;28;20505;-76
2022/04/04 12:05:49;;;;;;;1.55;1.33;;;7.90;99.90;;;;;;5018097;28;20088;-76
2022/04/04 12:08:17;;;;;;;1.40;0.93;;;8.00;99.90;;;;;;4991497;28;20053;-76
2022/04/04 12:10:45;;;;;;;0.90;0.90;;;8.00;99.90;;;;;;4986936;28;20046;-77
2022/04/04 12:13:21;;;;;;;0.65;0.65;;;8.00;99.90;;;;;;5004535;28;20053;-77
2022/04/04 12:15:50;;;;;;;0.75;0.75;;;8.00;99.90;;;;;;4992393;28;20189;-77
2022/04/04 12:18:29;;;;;;;0.70;0.70;;;8.00;99.90;;;;;;5016507;28;20037;-78
2022/04/04 12:20:58;;;;;;;0.85;0.85;;;8.10;99.90;;;;;;4989902;28;20096;-77
2022/04/04 12:26:12;;;;;;;1.90;1.42;;;8.20;99.90;;;;;;5006181;28;20077;-76
2022/04/04 12:28:40;;;;;;;1.67;1.58;;;8.20;99.90;;;;;;4998345;28;20670;-77
2022/04/04 12:31:32;;;;;;;1.48;1.17;;;8.30;99.90;;;;;;4988268;28;20050;-76
2022/04/04 12:34:06;;;;;;;0.70;0.70;;;8.30;99.90;;;;;;4987976;28;20054;-77
2022/04/04 12:36:40;;;;;;;0.70;0.70;;;8.30;99.90;;;;;;4974415;28;20608;-77
2022/04/04 12:39:16;;;;;;;0.63;0.63;;;8.30;99.90;;;;;;4971209;28;20516;-76
2022/04/04 12:41:44;;;;;;;1.70;1.58;;;8.40;99.90;;;;;;4989556;28;20072;-77
2022/04/04 12:44:11;;;;;;;2.60;1.08;;;8.40;99.90;;;;;;4988679;28;20057;-76
2022/04/04 12:46:37;;;;;;;1.45;1.35;;;8.50;99.90;;;;;;4991366;28;20065;-76
2022/04/04 12:49:23;;;;;;;1.10;1.00;;;8.50;99.90;;;;;;4973298;28;20054;-76
2022/04/04 12:52:00;;;;;;;2.75;2.53;;;8.50;99.90;;;;;;4983007;28;20458;-76
2022/04/04 12:54:35;;;;;;;2.15;1.95;;;8.50;99.90;;;;;;4969832;28;20082;-76
2022/04/04 12:57:04;;;;;;;0.70;0.70;;;8.60;99.90;;;;;;4986805;28;20052;-76
2022/04/04 12:59:31;;;;;;;2.88;2.25;;;8.60;99.90;;;;;;4980918;28;20053;-76
2022/04/04 13:02:09;;;;;;;2.15;1.45;;;8.70;99.90;;;;;;4971341;28;20038;-76
2022/04/04 13:04:38;;;;;;;2.88;1.52;;;8.70;99.90;;;;;;4989821;28;20058;-76
2022/04/04 13:07:13;;;;;;;0.95;0.95;;;8.70;99.90;;;;;;4990799;28;20041;-76